sensor_id;sensor_type;location;lat;lon;timestamp;P1;durP1;ratioP1;P2;durP2;ratioP2
76714;SDS011;65644;44.990;20.288;2023-01-26T00:02:17;7.87;;;5.17;;
76714;SDS011;65644;44.990;20.288;2023-01-26T00:04:43;8.23;;;4.67;;
76714;SDS011;65644;44.990;20.288;2023-01-26T00:07:09;7.93;;;4.93;;
76714;SDS011;65644;44.990;20.288;2023-01-26T00:09:35;8.90;;;4.93;;
76714;SDS011;65644;44.990;20.288;2023-01-26T00:12:01;7.90;;;5.07;;
76714;SDS011;65644;44.990;20.288;2023-01-26T00:14:27;8.60;;;5.17;;
76714;SDS011;65644;44.990;20.288;2023-01-26T00:19:39;7.67;;;4.73;;
76714;SDS011;65644;44.990;20.288;2023-01-26T00:22:05;7.30;;;4.17;;
76714;SDS011;65644;44.990;20.288;2023-01-26T00:24:31;7.43;;;4.90;;
76714;SDS011;65644;44.990;20.288;2023-01-26T00:26:57;6.83;;;4.27;;
76714;SDS011;65644;44.990;20.288;2023-01-26T00:29:23;7.43;;;4.27;;
76714;SDS011;65644;44.990;20.288;2023-01-26T00:31:49;7.67;;;4.60;;
76714;SDS011;65644;44.990;20.288;2023-01-26T00:34:15;9.93;;;4.90;;
76714;SDS011;65644;44.990;20.288;2023-01-26T00:36:41;8.50;;;4.53;;
76714;SDS011;65644;44.990;20.288;2023-01-26T00:39:07;8.30;;;4.60;;
76714;SDS011;65644;44.990;20.288;2023-01-26T00:41:33;7.60;;;4.50;;
76714;SDS011;65644;44.990;20.288;2023-01-26T00:44:18;8.13;;;4.27;;
76714;SDS011;65644;44.990;20.288;2023-01-26T00:46:44;6.93;;;4.23;;
76714;SDS011;65644;44.990;20.288;2023-01-26T00:49:10;7.97;;;5.13;;
76714;SDS011;65644;44.990;20.288;2023-01-26T00:51:36;8.10;;;5.20;;
76714;SDS011;65644;44.990;20.288;2023-01-26T00:54:02;7.40;;;4.80;;
76714;SDS011;65644;44.990;20.288;2023-01-26T00:56:28;7.63;;;4.60;;
76714;SDS011;65644;44.990;20.288;2023-01-26T00:58:54;7.37;;;4.80;;
76714;SDS011;65644;44.990;20.288;2023-01-26T01:01:20;7.53;;;4.30;;
76714;SDS011;65644;44.990;20.288;2023-01-26T01:03:46;6.93;;;4.00;;
76714;SDS011;65644;44.990;20.288;2023-01-26T01:06:14;7.57;;;4.50;;
76714;SDS011;65644;44.990;20.288;2023-01-26T01:08:40;7.50;;;4.63;;
76714;SDS011;65644;44.990;20.288;2023-01-26T01:11:07;6.87;;;4.13;;
76714;SDS011;65644;44.990;20.288;2023-01-26T01:13:34;7.27;;;4.13;;
76714;SDS011;65644;44.990;20.288;2023-01-26T01:16:03;5.73;;;3.93;;
76714;SDS011;65644;44.990;20.288;2023-01-26T01:18:29;7.20;;;4.30;;
76714;SDS011;65644;44.990;20.288;2023-01-26T01:20:55;5.93;;;3.97;;
76714;SDS011;65644;44.990;20.288;2023-01-26T01:23:21;6.97;;;4.90;;
76714;SDS011;65644;44.990;20.288;2023-01-26T01:25:55;5.50;;;3.67;;
76714;SDS011;65644;44.990;20.288;2023-01-26T01:28:21;7.90;;;4.33;;
76714;SDS011;65644;44.990;20.288;2023-01-26T01:30:47;5.97;;;4.33;;
76714;SDS011;65644;44.990;20.288;2023-01-26T01:33:13;6.43;;;3.90;;
76714;SDS011;65644;44.990;20.288;2023-01-26T01:35:39;4.80;;;3.37;;
76714;SDS011;65644;44.990;20.288;2023-01-26T01:38:05;5.97;;;4.00;;
76714;SDS011;65644;44.990;20.288;2023-01-26T01:40:31;6.53;;;3.97;;
76714;SDS011;65644;44.990;20.288;2023-01-26T01:42:57;5.40;;;4.10;;
76714;SDS011;65644;44.990;20.288;2023-01-26T01:45:40;7.27;;;4.03;;
76714;SDS011;65644;44.990;20.288;2023-01-26T01:48:08;7.50;;;4.33;;
76714;SDS011;65644;44.990;20.288;2023-01-26T01:50:36;6.13;;;4.17;;
76714;SDS011;65644;44.990;20.288;2023-01-26T01:53:03;5.87;;;3.90;;
76714;SDS011;65644;44.990;20.288;2023-01-26T01:55:30;6.97;;;3.97;;
76714;SDS011;65644;44.990;20.288;2023-01-26T01:57:57;6.50;;;4.40;;
76714;SDS011;65644;44.990;20.288;2023-01-26T02:00:24;8.40;;;4.13;;
76714;SDS011;65644;44.990;20.288;2023-01-26T02:08:13;6.90;;;4.53;;
76714;SDS011;65644;44.990;20.288;2023-01-26T02:10:41;7.20;;;5.00;;
76714;SDS011;65644;44.990;20.288;2023-01-26T02:13:08;8.03;;;5.07;;
76714;SDS011;65644;44.990;20.288;2023-01-26T02:15:34;7.20;;;4.30;;
76714;SDS011;65644;44.990;20.288;2023-01-26T02:18:01;8.17;;;4.83;;
76714;SDS011;65644;44.990;20.288;2023-01-26T02:20:36;7.97;;;5.10;;
76714;SDS011;65644;44.990;20.288;2023-01-26T02:28:00;7.27;;;5.10;;
76714;SDS011;65644;44.990;20.288;2023-01-26T02:30:26;8.47;;;5.90;;
76714;SDS011;65644;44.990;20.288;2023-01-26T02:32:53;9.37;;;5.30;;
76714;SDS011;65644;44.990;20.288;2023-01-26T02:35:19;7.70;;;4.93;;
76714;SDS011;65644;44.990;20.288;2023-01-26T02:37:46;10.10;;;5.70;;
76714;SDS011;65644;44.990;20.288;2023-01-26T02:40:13;8.37;;;5.47;;
76714;SDS011;65644;44.990;20.288;2023-01-26T02:42:40;8.07;;;5.43;;
76714;SDS011;65644;44.990;20.288;2023-01-26T02:45:09;9.07;;;5.67;;
76714;SDS011;65644;44.990;20.288;2023-01-26T02:47:35;9.07;;;5.67;;
76714;SDS011;65644;44.990;20.288;2023-01-26T02:50:01;8.47;;;5.90;;
76714;SDS011;65644;44.990;20.288;2023-01-26T02:52:28;7.40;;;5.20;;
76714;SDS011;65644;44.990;20.288;2023-01-26T02:54:57;7.53;;;5.07;;
76714;SDS011;65644;44.990;20.288;2023-01-26T02:57:42;7.90;;;5.88;;
76714;SDS011;65644;44.990;20.288;2023-01-26T03:00:09;10.50;;;5.90;;
76714;SDS011;65644;44.990;20.288;2023-01-26T03:02:36;9.57;;;5.83;;
76714;SDS011;65644;44.990;20.288;2023-01-26T03:05:02;8.97;;;5.33;;
76714;SDS011;65644;44.990;20.288;2023-01-26T03:07:29;8.43;;;5.87;;
76714;SDS011;65644;44.990;20.288;2023-01-26T03:09:55;8.37;;;5.47;;
76714;SDS011;65644;44.990;20.288;2023-01-26T03:12:22;9.83;;;5.60;;
76714;SDS011;65644;44.990;20.288;2023-01-26T03:14:48;7.80;;;5.47;;
76714;SDS011;65644;44.990;20.288;2023-01-26T03:17:35;8.97;;;5.37;;
76714;SDS011;65644;44.990;20.288;2023-01-26T03:20:01;8.80;;;5.63;;
76714;SDS011;65644;44.990;20.288;2023-01-26T03:22:46;10.38;;;6.32;;
76714;SDS011;65644;44.990;20.288;2023-01-26T03:25:31;9.07;;;5.70;;
76714;SDS011;65644;44.990;20.288;2023-01-26T03:28:15;8.93;;;6.17;;
76714;SDS011;65644;44.990;20.288;2023-01-26T03:30:46;8.30;;;5.43;;
76714;SDS011;65644;44.990;20.288;2023-01-26T03:33:13;9.87;;;6.10;;
76714;SDS011;65644;44.990;20.288;2023-01-26T03:35:39;9.03;;;6.30;;
76714;SDS011;65644;44.990;20.288;2023-01-26T03:38:05;8.50;;;5.80;;
76714;SDS011;65644;44.990;20.288;2023-01-26T03:40:31;10.10;;;6.03;;
76714;SDS011;65644;44.990;20.288;2023-01-26T03:43:16;8.05;;;5.57;;
76714;SDS011;65644;44.990;20.288;2023-01-26T03:46:04;8.17;;;6.07;;
76714;SDS011;65644;44.990;20.288;2023-01-26T03:48:49;9.37;;;6.13;;
76714;SDS011;65644;44.990;20.288;2023-01-26T03:51:34;7.90;;;5.40;;
76714;SDS011;65644;44.990;20.288;2023-01-26T03:54:19;10.30;;;6.13;;
76714;SDS011;65644;44.990;20.288;2023-01-26T03:57:03;8.83;;;5.77;;
76714;SDS011;65644;44.990;20.288;2023-01-26T03:59:29;10.07;;;6.13;;
76714;SDS011;65644;44.990;20.288;2023-01-26T04:02:08;10.23;;;6.28;;
76714;SDS011;65644;44.990;20.288;2023-01-26T04:04:53;11.00;;;6.23;;
76714;SDS011;65644;44.990;20.288;2023-01-26T04:07:38;9.50;;;6.13;;
76714;SDS011;65644;44.990;20.288;2023-01-26T04:10:23;9.67;;;5.80;;
76714;SDS011;65644;44.990;20.288;2023-01-26T04:12:50;8.17;;;5.80;;
76714;SDS011;65644;44.990;20.288;2023-01-26T04:15:35;9.73;;;6.43;;
76714;SDS011;65644;44.990;20.288;2023-01-26T04:18:20;9.68;;;5.85;;
76714;SDS011;65644;44.990;20.288;2023-01-26T04:21:04;9.70;;;5.80;;
76714;SDS011;65644;44.990;20.288;2023-01-26T04:23:49;9.80;;;6.22;;
76714;SDS011;65644;44.990;20.288;2023-01-26T04:26:18;10.73;;;5.77;;
76714;SDS011;65644;44.990;20.288;2023-01-26T04:28:44;10.87;;;6.23;;
76714;SDS011;65644;44.990;20.288;2023-01-26T04:31:10;11.00;;;7.37;;
76714;SDS011;65644;44.990;20.288;2023-01-26T04:33:36;14.40;;;8.27;;
76714;SDS011;65644;44.990;20.288;2023-01-26T04:36:03;13.27;;;7.57;;
76714;SDS011;65644;44.990;20.288;2023-01-26T04:38:29;13.53;;;7.93;;
76714;SDS011;65644;44.990;20.288;2023-01-26T04:40:55;10.77;;;7.13;;
76714;SDS011;65644;44.990;20.288;2023-01-26T04:43:22;12.90;;;7.27;;
76714;SDS011;65644;44.990;20.288;2023-01-26T04:46:01;12.30;;;7.63;;
76714;SDS011;65644;44.990;20.288;2023-01-26T04:48:27;47.23;;;19.70;;
76714;SDS011;65644;44.990;20.288;2023-01-26T04:50:54;12.63;;;7.80;;
76714;SDS011;65644;44.990;20.288;2023-01-26T04:53:20;17.50;;;10.07;;
76714;SDS011;65644;44.990;20.288;2023-01-26T04:55:46;14.33;;;7.47;;
76714;SDS011;65644;44.990;20.288;2023-01-26T04:58:12;15.23;;;8.80;;
76714;SDS011;65644;44.990;20.288;2023-01-26T05:00:38;17.30;;;9.30;;
76714;SDS011;65644;44.990;20.288;2023-01-26T05:03:04;11.73;;;6.87;;
76714;SDS011;65644;44.990;20.288;2023-01-26T05:05:34;9.80;;;7.10;;
76714;SDS011;65644;44.990;20.288;2023-01-26T05:08:00;13.33;;;8.27;;
76714;SDS011;65644;44.990;20.288;2023-01-26T05:10:26;10.73;;;7.27;;
76714;SDS011;65644;44.990;20.288;2023-01-26T05:12:52;13.57;;;8.13;;
76714;SDS011;65644;44.990;20.288;2023-01-26T05:15:19;11.87;;;7.17;;
76714;SDS011;65644;44.990;20.288;2023-01-26T05:17:45;18.13;;;9.97;;
76714;SDS011;65644;44.990;20.288;2023-01-26T05:20:11;14.63;;;7.70;;
76714;SDS011;65644;44.990;20.288;2023-01-26T05:22:37;11.13;;;7.37;;
76714;SDS011;65644;44.990;20.288;2023-01-26T05:25:03;16.77;;;9.47;;
76714;SDS011;65644;44.990;20.288;2023-01-26T05:27:29;12.30;;;7.90;;
76714;SDS011;65644;44.990;20.288;2023-01-26T05:29:55;11.33;;;7.40;;
76714;SDS011;65644;44.990;20.288;2023-01-26T05:32:24;11.73;;;7.60;;
76714;SDS011;65644;44.990;20.288;2023-01-26T05:34:51;12.23;;;6.70;;
76714;SDS011;65644;44.990;20.288;2023-01-26T05:37:17;10.17;;;6.17;;
76714;SDS011;65644;44.990;20.288;2023-01-26T05:39:43;11.83;;;6.23;;
76714;SDS011;65644;44.990;20.288;2023-01-26T05:42:10;9.67;;;6.67;;
76714;SDS011;65644;44.990;20.288;2023-01-26T05:44:36;9.70;;;5.67;;
76714;SDS011;65644;44.990;20.288;2023-01-26T05:47:02;10.00;;;6.33;;
76714;SDS011;65644;44.990;20.288;2023-01-26T05:49:28;9.93;;;6.53;;
76714;SDS011;65644;44.990;20.288;2023-01-26T05:51:54;10.83;;;6.47;;
76714;SDS011;65644;44.990;20.288;2023-01-26T05:54:20;8.03;;;5.97;;
76714;SDS011;65644;44.990;20.288;2023-01-26T05:56:46;12.17;;;6.93;;
76714;SDS011;65644;44.990;20.288;2023-01-26T05:59:13;8.73;;;6.00;;
76714;SDS011;65644;44.990;20.288;2023-01-26T06:01:39;9.03;;;6.03;;
76714;SDS011;65644;44.990;20.288;2023-01-26T06:04:05;11.67;;;6.77;;
76714;SDS011;65644;44.990;20.288;2023-01-26T06:06:31;11.57;;;6.83;;
76714;SDS011;65644;44.990;20.288;2023-01-26T06:08:57;11.57;;;6.37;;
76714;SDS011;65644;44.990;20.288;2023-01-26T06:11:23;11.63;;;7.50;;
76714;SDS011;65644;44.990;20.288;2023-01-26T06:13:50;10.37;;;6.20;;
76714;SDS011;65644;44.990;20.288;2023-01-26T06:16:16;12.60;;;7.27;;
76714;SDS011;65644;44.990;20.288;2023-01-26T06:18:42;10.97;;;6.57;;
76714;SDS011;65644;44.990;20.288;2023-01-26T06:21:08;10.40;;;6.70;;
76714;SDS011;65644;44.990;20.288;2023-01-26T06:23:34;9.93;;;6.73;;
76714;SDS011;65644;44.990;20.288;2023-01-26T06:26:00;13.70;;;6.67;;
76714;SDS011;65644;44.990;20.288;2023-01-26T06:28:27;9.17;;;6.40;;
76714;SDS011;65644;44.990;20.288;2023-01-26T06:30:59;10.30;;;7.30;;
76714;SDS011;65644;44.990;20.288;2023-01-26T06:33:26;11.27;;;6.57;;
76714;SDS011;65644;44.990;20.288;2023-01-26T06:35:52;11.33;;;7.27;;
76714;SDS011;65644;44.990;20.288;2023-01-26T06:38:18;10.63;;;6.57;;
76714;SDS011;65644;44.990;20.288;2023-01-26T06:40:44;10.23;;;6.73;;
76714;SDS011;65644;44.990;20.288;2023-01-26T06:43:11;11.00;;;6.30;;
76714;SDS011;65644;44.990;20.288;2023-01-26T06:45:37;8.73;;;6.33;;
76714;SDS011;65644;44.990;20.288;2023-01-26T06:48:03;10.17;;;6.93;;
76714;SDS011;65644;44.990;20.288;2023-01-26T06:50:32;9.43;;;6.53;;
76714;SDS011;65644;44.990;20.288;2023-01-26T06:52:58;11.40;;;6.80;;
76714;SDS011;65644;44.990;20.288;2023-01-26T06:55:31;13.10;;;7.63;;
76714;SDS011;65644;44.990;20.288;2023-01-26T06:57:58;8.67;;;6.67;;
76714;SDS011;65644;44.990;20.288;2023-01-26T07:00:24;9.77;;;6.80;;
76714;SDS011;65644;44.990;20.288;2023-01-26T07:02:50;10.90;;;6.70;;
76714;SDS011;65644;44.990;20.288;2023-01-26T07:05:16;10.57;;;6.60;;
76714;SDS011;65644;44.990;20.288;2023-01-26T07:07:42;10.07;;;7.03;;
76714;SDS011;65644;44.990;20.288;2023-01-26T07:10:08;11.60;;;7.33;;
76714;SDS011;65644;44.990;20.288;2023-01-26T07:12:41;10.20;;;6.63;;
76714;SDS011;65644;44.990;20.288;2023-01-26T07:15:08;10.30;;;7.00;;
76714;SDS011;65644;44.990;20.288;2023-01-26T07:17:35;13.13;;;7.53;;
76714;SDS011;65644;44.990;20.288;2023-01-26T07:20:01;14.07;;;7.00;;
76714;SDS011;65644;44.990;20.288;2023-01-26T07:22:27;13.00;;;7.70;;
76714;SDS011;65644;44.990;20.288;2023-01-26T07:24:53;12.30;;;7.17;;
76714;SDS011;65644;44.990;20.288;2023-01-26T07:27:19;10.60;;;6.97;;
76714;SDS011;65644;44.990;20.288;2023-01-26T07:29:45;12.53;;;8.27;;
76714;SDS011;65644;44.990;20.288;2023-01-26T07:32:11;12.13;;;7.57;;
76714;SDS011;65644;44.990;20.288;2023-01-26T07:34:37;9.93;;;7.07;;
76714;SDS011;65644;44.990;20.288;2023-01-26T07:37:03;10.90;;;6.90;;
76714;SDS011;65644;44.990;20.288;2023-01-26T07:39:30;13.63;;;8.43;;
76714;SDS011;65644;44.990;20.288;2023-01-26T07:41:56;13.40;;;7.67;;
76714;SDS011;65644;44.990;20.288;2023-01-26T07:44:22;11.53;;;8.07;;
76714;SDS011;65644;44.990;20.288;2023-01-26T07:46:48;12.47;;;8.13;;
76714;SDS011;65644;44.990;20.288;2023-01-26T07:49:14;11.73;;;7.33;;
76714;SDS011;65644;44.990;20.288;2023-01-26T07:51:40;11.23;;;7.40;;
76714;SDS011;65644;44.990;20.288;2023-01-26T07:54:06;11.60;;;7.57;;
76714;SDS011;65644;44.990;20.288;2023-01-26T07:56:35;11.80;;;7.93;;
76714;SDS011;65644;44.990;20.288;2023-01-26T07:59:01;12.37;;;7.60;;
76714;SDS011;65644;44.990;20.288;2023-01-26T08:01:27;11.50;;;7.83;;
76714;SDS011;65644;44.990;20.288;2023-01-26T08:03:53;13.63;;;7.13;;
76714;SDS011;65644;44.990;20.288;2023-01-26T08:06:19;13.47;;;7.57;;
76714;SDS011;65644;44.990;20.288;2023-01-26T08:08:46;15.33;;;9.93;;
76714;SDS011;65644;44.990;20.288;2023-01-26T08:11:18;15.27;;;8.63;;
76714;SDS011;65644;44.990;20.288;2023-01-26T08:13:46;11.13;;;7.30;;
76714;SDS011;65644;44.990;20.288;2023-01-26T08:16:12;17.93;;;9.93;;
76714;SDS011;65644;44.990;20.288;2023-01-26T08:18:42;10.70;;;7.50;;
76714;SDS011;65644;44.990;20.288;2023-01-26T08:21:08;14.37;;;9.00;;
76714;SDS011;65644;44.990;20.288;2023-01-26T08:23:35;12.83;;;7.43;;
76714;SDS011;65644;44.990;20.288;2023-01-26T08:26:04;17.03;;;9.93;;
76714;SDS011;65644;44.990;20.288;2023-01-26T08:28:31;23.63;;;11.37;;
76714;SDS011;65644;44.990;20.288;2023-01-26T08:31:04;15.27;;;8.23;;
76714;SDS011;65644;44.990;20.288;2023-01-26T08:33:31;19.93;;;10.37;;
76714;SDS011;65644;44.990;20.288;2023-01-26T08:36:01;20.13;;;10.93;;
76714;SDS011;65644;44.990;20.288;2023-01-26T08:38:28;25.37;;;13.07;;
76714;SDS011;65644;44.990;20.288;2023-01-26T08:40:55;18.20;;;10.33;;
76714;SDS011;65644;44.990;20.288;2023-01-26T08:43:21;16.73;;;10.00;;
76714;SDS011;65644;44.990;20.288;2023-01-26T08:45:47;14.87;;;9.00;;
76714;SDS011;65644;44.990;20.288;2023-01-26T08:48:13;18.17;;;10.27;;
76714;SDS011;65644;44.990;20.288;2023-01-26T08:50:39;20.23;;;11.37;;
76714;SDS011;65644;44.990;20.288;2023-01-26T08:53:05;19.97;;;11.43;;
76714;SDS011;65644;44.990;20.288;2023-01-26T08:55:33;17.47;;;10.10;;
76714;SDS011;65644;44.990;20.288;2023-01-26T08:57:59;14.70;;;8.90;;
76714;SDS011;65644;44.990;20.288;2023-01-26T09:00:25;15.43;;;10.07;;
76714;SDS011;65644;44.990;20.288;2023-01-26T09:03:00;20.60;;;10.67;;
76714;SDS011;65644;44.990;20.288;2023-01-26T09:05:30;12.80;;;8.33;;
76714;SDS011;65644;44.990;20.288;2023-01-26T09:07:56;15.23;;;9.00;;
76714;SDS011;65644;44.990;20.288;2023-01-26T09:10:22;14.37;;;7.10;;
76714;SDS011;65644;44.990;20.288;2023-01-26T09:12:48;10.50;;;7.90;;
76714;SDS011;65644;44.990;20.288;2023-01-26T09:15:14;14.53;;;9.53;;
76714;SDS011;65644;44.990;20.288;2023-01-26T09:17:40;16.00;;;9.90;;
76714;SDS011;65644;44.990;20.288;2023-01-26T09:20:09;13.70;;;7.93;;
76714;SDS011;65644;44.990;20.288;2023-01-26T09:22:35;12.70;;;7.93;;
76714;SDS011;65644;44.990;20.288;2023-01-26T09:25:01;13.40;;;8.17;;
76714;SDS011;65644;44.990;20.288;2023-01-26T09:27:27;10.00;;;6.70;;
76714;SDS011;65644;44.990;20.288;2023-01-26T09:29:53;10.43;;;6.97;;
76714;SDS011;65644;44.990;20.288;2023-01-26T09:32:20;10.03;;;6.43;;
76714;SDS011;65644;44.990;20.288;2023-01-26T09:34:46;10.47;;;6.67;;
76714;SDS011;65644;44.990;20.288;2023-01-26T09:37:12;12.10;;;7.40;;
76714;SDS011;65644;44.990;20.288;2023-01-26T09:39:38;10.90;;;6.90;;
76714;SDS011;65644;44.990;20.288;2023-01-26T09:47:31;13.17;;;8.00;;
76714;SDS011;65644;44.990;20.288;2023-01-26T09:50:01;11.33;;;6.87;;
76714;SDS011;65644;44.990;20.288;2023-01-26T09:52:29;11.13;;;7.07;;
76714;SDS011;65644;44.990;20.288;2023-01-26T09:54:59;14.93;;;8.50;;
76714;SDS011;65644;44.990;20.288;2023-01-26T09:57:31;11.70;;;6.97;;
76714;SDS011;65644;44.990;20.288;2023-01-26T10:00:00;10.33;;;6.27;;
76714;SDS011;65644;44.990;20.288;2023-01-26T10:02:34;10.53;;;5.77;;
76714;SDS011;65644;44.990;20.288;2023-01-26T10:05:09;9.53;;;6.07;;
76714;SDS011;65644;44.990;20.288;2023-01-26T10:07:38;9.13;;;5.97;;
76714;SDS011;65644;44.990;20.288;2023-01-26T10:10:04;8.53;;;5.50;;
76714;SDS011;65644;44.990;20.288;2023-01-26T10:12:31;9.73;;;6.00;;
76714;SDS011;65644;44.990;20.288;2023-01-26T10:17:32;9.10;;;5.60;;
76714;SDS011;65644;44.990;20.288;2023-01-26T10:20:07;10.63;;;6.07;;
76714;SDS011;65644;44.990;20.288;2023-01-26T10:22:44;10.98;;;6.07;;
76714;SDS011;65644;44.990;20.288;2023-01-26T10:25:15;13.33;;;7.23;;
76714;SDS011;65644;44.990;20.288;2023-01-26T10:27:42;12.30;;;6.23;;
76714;SDS011;65644;44.990;20.288;2023-01-26T10:30:13;10.97;;;6.20;;
76714;SDS011;65644;44.990;20.288;2023-01-26T10:32:40;11.13;;;6.80;;
76714;SDS011;65644;44.990;20.288;2023-01-26T10:35:12;20.70;;;10.20;;
76714;SDS011;65644;44.990;20.288;2023-01-26T10:37:40;8.60;;;5.97;;
76714;SDS011;65644;44.990;20.288;2023-01-26T10:40:06;19.33;;;9.57;;
76714;SDS011;65644;44.990;20.288;2023-01-26T10:42:34;10.10;;;6.60;;
76714;SDS011;65644;44.990;20.288;2023-01-26T10:45:05;8.87;;;5.80;;
76714;SDS011;65644;44.990;20.288;2023-01-26T10:47:31;9.67;;;5.80;;
76714;SDS011;65644;44.990;20.288;2023-01-26T10:52:55;7.85;;;5.70;;
76714;SDS011;65644;44.990;20.288;2023-01-26T10:55:21;9.50;;;5.30;;
76714;SDS011;65644;44.990;20.288;2023-01-26T10:57:47;7.47;;;4.93;;
76714;SDS011;65644;44.990;20.288;2023-01-26T11:02:50;7.93;;;5.50;;
76714;SDS011;65644;44.990;20.288;2023-01-26T11:05:21;10.13;;;5.60;;
76714;SDS011;65644;44.990;20.288;2023-01-26T11:07:51;10.00;;;6.50;;
76714;SDS011;65644;44.990;20.288;2023-01-26T11:10:34;8.77;;;5.40;;
76714;SDS011;65644;44.990;20.288;2023-01-26T11:15:51;6.00;;;3.83;;
76714;SDS011;65644;44.990;20.288;2023-01-26T11:33:38;6.67;;;3.90;;
76714;SDS011;65644;44.990;20.288;2023-01-26T11:38:40;15.20;;;8.13;;
76714;SDS011;65644;44.990;20.288;2023-01-26T11:41:11;8.27;;;4.73;;
76714;SDS011;65644;44.990;20.288;2023-01-26T11:48:45;4.77;;;3.13;;
76714;SDS011;65644;44.990;20.288;2023-01-26T11:59:08;5.43;;;3.27;;
76714;SDS011;65644;44.990;20.288;2023-01-26T12:01:50;6.40;;;3.27;;
76714;SDS011;65644;44.990;20.288;2023-01-26T12:04:20;6.10;;;4.20;;
76714;SDS011;65644;44.990;20.288;2023-01-26T12:06:56;6.60;;;3.90;;
76714;SDS011;65644;44.990;20.288;2023-01-26T12:21:44;5.67;;;4.43;;
76714;SDS011;65644;44.990;20.288;2023-01-26T12:27:00;6.77;;;4.10;;
76714;SDS011;65644;44.990;20.288;2023-01-26T12:29:33;7.13;;;4.03;;
76714;SDS011;65644;44.990;20.288;2023-01-26T12:32:04;6.43;;;4.10;;
76714;SDS011;65644;44.990;20.288;2023-01-26T12:34:33;8.40;;;5.30;;
76714;SDS011;65644;44.990;20.288;2023-01-26T12:39:41;22.10;;;12.73;;
76714;SDS011;65644;44.990;20.288;2023-01-26T12:49:50;13.23;;;8.63;;
76714;SDS011;65644;44.990;20.288;2023-01-26T12:52:29;15.03;;;9.27;;
76714;SDS011;65644;44.990;20.288;2023-01-26T12:57:32;9.40;;;6.30;;
76714;SDS011;65644;44.990;20.288;2023-01-26T13:00:03;18.50;;;11.20;;
76714;SDS011;65644;44.990;20.288;2023-01-26T13:02:33;25.47;;;15.13;;
76714;SDS011;65644;44.990;20.288;2023-01-26T13:05:00;13.63;;;8.93;;
76714;SDS011;65644;44.990;20.288;2023-01-26T13:07:31;10.67;;;8.17;;
76714;SDS011;65644;44.990;20.288;2023-01-26T13:10:19;9.43;;;6.07;;
76714;SDS011;65644;44.990;20.288;2023-01-26T13:12:45;10.03;;;7.00;;
76714;SDS011;65644;44.990;20.288;2023-01-26T13:15:15;11.43;;;6.93;;
76714;SDS011;65644;44.990;20.288;2023-01-26T13:20:24;12.13;;;7.63;;
76714;SDS011;65644;44.990;20.288;2023-01-26T13:22:51;14.47;;;7.87;;
76714;SDS011;65644;44.990;20.288;2023-01-26T13:25:28;36.80;;;18.33;;
76714;SDS011;65644;44.990;20.288;2023-01-26T13:27:59;15.97;;;9.30;;
76714;SDS011;65644;44.990;20.288;2023-01-26T13:35:18;14.73;;;9.07;;
76714;SDS011;65644;44.990;20.288;2023-01-26T13:37:48;14.67;;;9.47;;
76714;SDS011;65644;44.990;20.288;2023-01-26T13:40:18;11.53;;;6.97;;
76714;SDS011;65644;44.990;20.288;2023-01-26T13:48:15;14.33;;;8.63;;
76714;SDS011;65644;44.990;20.288;2023-01-26T13:50:43;33.67;;;16.73;;
76714;SDS011;65644;44.990;20.288;2023-01-26T13:53:24;33.47;;;19.83;;
76714;SDS011;65644;44.990;20.288;2023-01-26T13:55:55;20.43;;;12.77;;
76714;SDS011;65644;44.990;20.288;2023-01-26T13:58:22;21.53;;;14.40;;
76714;SDS011;65644;44.990;20.288;2023-01-26T14:00:58;12.97;;;8.33;;
76714;SDS011;65644;44.990;20.288;2023-01-26T14:03:24;13.77;;;9.57;;
76714;SDS011;65644;44.990;20.288;2023-01-26T14:05:51;14.87;;;10.07;;
76714;SDS011;65644;44.990;20.288;2023-01-26T14:08:18;16.30;;;10.40;;
76714;SDS011;65644;44.990;20.288;2023-01-26T14:10:46;15.47;;;9.47;;
76714;SDS011;65644;44.990;20.288;2023-01-26T14:13:18;28.37;;;17.40;;
76714;SDS011;65644;44.990;20.288;2023-01-26T14:15:44;27.67;;;15.57;;
76714;SDS011;65644;44.990;20.288;2023-01-26T14:18:20;17.47;;;10.70;;
76714;SDS011;65644;44.990;20.288;2023-01-26T14:20:49;13.00;;;8.50;;
76714;SDS011;65644;44.990;20.288;2023-01-26T14:23:33;13.00;;;7.83;;
76714;SDS011;65644;44.990;20.288;2023-01-26T14:26:00;21.70;;;13.50;;
76714;SDS011;65644;44.990;20.288;2023-01-26T14:28:28;34.13;;;19.43;;
76714;SDS011;65644;44.990;20.288;2023-01-26T14:31:00;35.50;;;19.27;;
76714;SDS011;65644;44.990;20.288;2023-01-26T14:33:28;19.57;;;14.10;;
76714;SDS011;65644;44.990;20.288;2023-01-26T14:35:58;20.20;;;13.50;;
76714;SDS011;65644;44.990;20.288;2023-01-26T14:38:25;16.03;;;10.77;;
76714;SDS011;65644;44.990;20.288;2023-01-26T14:40:54;19.57;;;12.30;;
76714;SDS011;65644;44.990;20.288;2023-01-26T14:43:21;30.70;;;18.33;;
76714;SDS011;65644;44.990;20.288;2023-01-26T14:50:49;22.70;;;13.50;;
76714;SDS011;65644;44.990;20.288;2023-01-26T14:53:19;19.27;;;11.97;;
76714;SDS011;65644;44.990;20.288;2023-01-26T14:55:45;19.47;;;13.23;;
76714;SDS011;65644;44.990;20.288;2023-01-26T14:58:19;21.20;;;13.00;;
76714;SDS011;65644;44.990;20.288;2023-01-26T15:00:46;23.60;;;14.97;;
76714;SDS011;65644;44.990;20.288;2023-01-26T15:05:46;41.77;;;22.83;;
76714;SDS011;65644;44.990;20.288;2023-01-26T15:13:23;20.20;;;14.37;;
76714;SDS011;65644;44.990;20.288;2023-01-26T15:16:01;28.37;;;17.43;;
76714;SDS011;65644;44.990;20.288;2023-01-26T15:18:31;29.37;;;20.43;;
76714;SDS011;65644;44.990;20.288;2023-01-26T15:20:59;24.63;;;15.57;;
76714;SDS011;65644;44.990;20.288;2023-01-26T15:23:29;25.50;;;16.20;;
76714;SDS011;65644;44.990;20.288;2023-01-26T15:26:03;25.97;;;17.60;;
76714;SDS011;65644;44.990;20.288;2023-01-26T15:28:29;28.40;;;16.13;;
76714;SDS011;65644;44.990;20.288;2023-01-26T15:30:56;27.43;;;16.47;;
76714;SDS011;65644;44.990;20.288;2023-01-26T15:36:01;25.77;;;15.33;;
76714;SDS011;65644;44.990;20.288;2023-01-26T15:38:27;33.37;;;19.37;;
76714;SDS011;65644;44.990;20.288;2023-01-26T15:40:53;28.93;;;18.50;;
76714;SDS011;65644;44.990;20.288;2023-01-26T15:43:19;24.07;;;14.17;;
76714;SDS011;65644;44.990;20.288;2023-01-26T15:45:52;26.53;;;15.47;;
76714;SDS011;65644;44.990;20.288;2023-01-26T15:48:19;29.77;;;17.27;;
76714;SDS011;65644;44.990;20.288;2023-01-26T15:50:45;35.47;;;19.80;;
76714;SDS011;65644;44.990;20.288;2023-01-26T15:53:16;41.73;;;22.47;;
76714;SDS011;65644;44.990;20.288;2023-01-26T15:55:44;42.97;;;23.53;;
76714;SDS011;65644;44.990;20.288;2023-01-26T15:58:10;31.97;;;19.23;;
76714;SDS011;65644;44.990;20.288;2023-01-26T16:00:36;31.10;;;18.37;;
76714;SDS011;65644;44.990;20.288;2023-01-26T16:03:02;25.60;;;16.20;;
76714;SDS011;65644;44.990;20.288;2023-01-26T16:05:30;27.10;;;15.80;;
76714;SDS011;65644;44.990;20.288;2023-01-26T16:07:56;28.33;;;18.13;;
76714;SDS011;65644;44.990;20.288;2023-01-26T16:10:22;25.97;;;16.33;;
76714;SDS011;65644;44.990;20.288;2023-01-26T16:12:48;26.10;;;16.17;;
76714;SDS011;65644;44.990;20.288;2023-01-26T16:17:46;31.37;;;18.17;;
76714;SDS011;65644;44.990;20.288;2023-01-26T16:20:12;29.43;;;17.37;;
76714;SDS011;65644;44.990;20.288;2023-01-26T16:22:38;32.70;;;18.60;;
76714;SDS011;65644;44.990;20.288;2023-01-26T16:25:10;28.03;;;16.17;;
76714;SDS011;65644;44.990;20.288;2023-01-26T16:27:41;26.63;;;16.93;;
76714;SDS011;65644;44.990;20.288;2023-01-26T16:30:07;36.17;;;20.60;;
76714;SDS011;65644;44.990;20.288;2023-01-26T16:32:33;32.17;;;18.17;;